Time;durP1;ratioP1;P1;durP2;ratioP2;P2;SDS_P1;SDS_P2;PMS_P1;PMS_P2;Temp;Humidity;BMP_temperature;BMP_pressure;BME280_temperature;BME280_humidity;BME280_pressure;Samples;Min_cycle;Max_cycle;Signal;HPM_P1;HPM_P2
2023/07/11 00:00:14;;;;;;;13.43;7.80;;;29.50;99.90;;;;;;5035614;28;20052;-49
2023/07/11 00:02:47;;;;;;;18.13;8.55;;;29.50;99.90;;;;;;5034745;28;20045;-49
2023/07/11 00:05:15;;;;;;;14.70;8.18;;;29.50;99.90;;;;;;5034715;28;20060;-49
2023/07/11 00:07:42;;;;;;;16.48;7.72;;;29.50;99.90;;;;;;5034740;28;20025;-49
2023/07/11 00:10:11;;;;;;;17.73;7.40;;;29.50;99.90;;;;;;5034703;28;20021;-49
2023/07/11 00:12:37;;;;;;;18.45;7.63;;;29.50;99.90;;;;;;5034660;28;20033;-49
2023/07/11 00:15:04;;;;;;;11.65;6.65;;;29.50;99.90;;;;;;5034195;28;20503;-49
2023/07/11 00:17:30;;;;;;;14.97;7.33;;;29.60;99.90;;;;;;5034071;28;20463;-49
2023/07/11 00:19:57;;;;;;;10.98;6.63;;;29.60;99.90;;;;;;5034406;28;20100;-49
2023/07/11 00:22:28;;;;;;;19.73;7.10;;;29.60;99.90;;;;;;5049646;28;20388;-49
2023/07/11 00:24:54;;;;;;;17.65;7.05;;;29.60;99.90;;;;;;5034276;28;20026;-49
2023/07/11 00:27:20;;;;;;;17.13;7.00;;;29.60;99.90;;;;;;5034293;28;20244;-49
2023/07/11 00:29:47;;;;;;;13.90;6.80;;;29.60;99.90;;;;;;5034193;28;20057;-49
2023/07/11 00:32:13;;;;;;;18.40;7.18;;;29.60;99.90;;;;;;5034109;28;20091;-49
2023/07/11 00:34:39;;;;;;;15.45;6.47;;;29.60;99.90;;;;;;5034484;28;20022;-49
2023/07/11 00:37:05;;;;;;;18.40;6.22;;;29.60;99.90;;;;;;5023582;28;20026;-49
2023/07/11 00:39:33;;;;;;;12.20;6.22;;;29.60;99.90;;;;;;5013161;28;20026;-49
2023/07/11 00:41:59;;;;;;;15.23;5.78;;;29.60;99.90;;;;;;5028157;28;20018;-49
2023/07/11 00:44:25;;;;;;;17.20;6.70;;;29.50;99.90;;;;;;5011329;28;20029;-50
2023/07/11 00:46:52;;;;;;;14.02;6.40;;;29.60;99.90;;;;;;5018570;28;20022;-49
2023/07/11 00:49:21;;;;;;;13.38;6.68;;;29.60;99.90;;;;;;5013725;28;20084;-49
2023/07/11 00:51:57;;;;;;;21.95;7.25;;;29.60;99.90;;;;;;5023884;28;20037;-49
2023/07/11 00:54:32;;;;;;;20.10;6.60;;;29.60;99.90;;;;;;5033299;28;20366;-49
2023/07/11 00:57:00;;;;;;;12.90;6.63;;;29.60;99.90;;;;;;5033277;28;20104;-49
2023/07/11 00:59:27;;;;;;;11.57;6.25;;;29.60;99.90;;;;;;5032069;28;20024;-49
2023/07/11 01:02:21;;;;;;;13.05;6.68;;;29.60;99.90;;;;;;5033212;28;20109;-49
2023/07/11 01:04:48;;;;;;;12.95;6.10;;;29.60;99.90;;;;;;5031377;28;20083;-49
2023/07/11 01:07:19;;;;;;;12.38;6.00;;;29.60;99.90;;;;;;5033139;28;20477;-49
2023/07/11 01:09:45;;;;;;;14.85;6.35;;;29.60;99.90;;;;;;5033103;28;20017;-49
2023/07/11 01:12:14;;;;;;;11.85;5.93;;;29.60;99.90;;;;;;5033079;28;20036;-49
2023/07/11 01:14:43;;;;;;;15.90;7.00;;;29.60;99.90;;;;;;5033453;28;20047;-48
2023/07/11 01:17:31;;;;;;;17.02;6.43;;;29.60;99.90;;;;;;5033018;28;20109;-49
2023/07/11 01:20:05;;;;;;;11.88;6.85;;;29.60;99.90;;;;;;5033058;28;20097;-49
2023/07/11 01:22:32;;;;;;;18.55;7.80;;;29.60;99.90;;;;;;5030386;28;20045;-49
2023/07/11 01:25:04;;;;;;;;;;;29.60;99.90;;;;;;5033172;28;20082;-49
2023/07/11 01:27:29;;;;;;;11.55;6.07;;;29.60;99.90;;;;;;5031597;28;19905;-49
2023/07/11 01:29:55;;;;;;;14.52;6.25;;;29.60;99.90;;;;;;5032990;28;20040;-49
2023/07/11 01:32:21;;;;;;;12.05;7.32;;;29.60;99.90;;;;;;5032369;28;20060;-49
2023/07/11 01:34:47;;;;;;;17.70;6.55;;;29.60;99.90;;;;;;5032940;28;20377;-49
2023/07/11 01:37:12;;;;;;;12.98;6.10;;;29.60;99.90;;;;;;5032834;28;20048;-49
2023/07/11 01:39:38;;;;;;;14.60;6.65;;;29.60;99.90;;;;;;5032518;28;20021;-49
2023/07/11 01:42:05;;;;;;;20.13;6.93;;;29.60;99.90;;;;;;5032504;28;20420;-49
2023/07/11 01:44:31;;;;;;;18.02;6.55;;;29.60;99.90;;;;;;5032643;28;20048;-49
2023/07/11 01:46:57;;;;;;;18.03;7.10;;;29.60;99.90;;;;;;5032500;28;20021;-49
2023/07/11 01:49:23;;;;;;;12.52;6.88;;;29.60;99.90;;;;;;5032497;28;20428;-49
2023/07/11 01:52:01;;;;;;;21.45;8.25;;;29.50;99.90;;;;;;5032281;28;20029;-49
2023/07/11 01:54:26;;;;;;;17.40;7.13;;;29.50;99.90;;;;;;5032368;28;20024;-48
2023/07/11 01:56:52;;;;;;;13.43;7.03;;;29.50;99.90;;;;;;5032432;28;20057;-49
2023/07/11 01:59:18;;;;;;;14.07;6.88;;;29.50;99.90;;;;;;5032258;28;20021;-49
2023/07/11 02:01:43;;;;;;;11.90;6.03;;;29.50;99.90;;;;;;5032602;28;20049;-49
2023/07/11 02:04:09;;;;;;;13.77;7.65;;;29.50;99.90;;;;;;5032354;28;20025;-49
2023/07/11 02:06:35;;;;;;;13.73;7.07;;;29.50;99.90;;;;;;5031884;28;20061;-49
2023/07/11 02:09:02;;;;;;;12.10;6.63;;;29.50;99.90;;;;;;5031059;28;20029;-49
2023/07/11 02:11:28;;;;;;;15.15;7.40;;;29.40;99.90;;;;;;5031220;28;20033;-49
2023/07/11 02:13:54;;;;;;;12.77;6.90;;;29.40;99.90;;;;;;5032201;28;20074;-50
2023/07/11 02:16:20;;;;;;;13.30;6.20;;;29.40;99.90;;;;;;5031980;28;20115;-49
2023/07/11 02:18:45;;;;;;;14.98;7.57;;;29.40;99.90;;;;;;5032263;28;20036;-53
2023/07/11 02:21:11;;;;;;;14.43;7.00;;;29.40;99.90;;;;;;5032200;28;20036;-49
2023/07/11 02:23:37;;;;;;;13.60;6.97;;;29.40;99.90;;;;;;5030569;28;20024;-49
2023/07/11 02:26:03;;;;;;;12.80;6.65;;;29.40;99.90;;;;;;5032238;28;20047;-49
2023/07/11 02:28:28;;;;;;;14.90;7.15;;;29.40;99.90;;;;;;5032020;28;20532;-49
2023/07/11 02:30:55;;;;;;;17.08;7.43;;;29.40;99.90;;;;;;5031916;28;20037;-49
2023/07/11 02:33:20;;;;;;;18.15;7.63;;;29.30;99.90;;;;;;5031681;28;20385;-49
2023/07/11 02:35:46;;;;;;;20.30;6.97;;;29.30;99.90;;;;;;5031898;28;20034;-49
2023/07/11 02:38:12;;;;;;;18.58;7.28;;;29.30;99.90;;;;;;5031599;28;20021;-49
2023/07/11 02:40:38;;;;;;;14.70;8.15;;;29.20;99.90;;;;;;5035925;28;20021;-49
2023/07/11 02:43:03;;;;;;;13.52;7.45;;;29.20;99.90;;;;;;5035973;28;20029;-49
2023/07/11 02:45:29;;;;;;;21.75;9.65;;;29.20;99.90;;;;;;5034685;28;20466;-49
2023/07/11 02:47:55;;;;;;;19.15;8.77;;;29.20;99.90;;;;;;5036048;28;20037;-49
2023/07/11 02:50:21;;;;;;;11.50;7.43;;;29.10;99.90;;;;;;5035636;28;20013;-49
2023/07/11 02:52:47;;;;;;;19.10;8.30;;;29.10;99.90;;;;;;5035701;28;20037;-49
2023/07/11 02:55:13;;;;;;;18.48;7.85;;;29.10;99.90;;;;;;5035561;28;20068;-49
2023/07/11 02:57:43;;;;;;;17.42;7.03;;;29.00;99.90;;;;;;5035535;28;20048;-49
2023/07/11 03:02:48;;;;;;;12.98;7.22;;;29.00;99.90;;;;;;4994381;28;20070;-52
2023/07/11 03:05:14;;;;;;;19.52;8.15;;;29.00;99.90;;;;;;4996231;28;20066;-51
2023/07/11 03:07:40;;;;;;;15.02;6.97;;;29.00;99.90;;;;;;4996325;28;20022;-52
2023/07/11 03:10:06;;;;;;;14.35;6.70;;;28.90;99.90;;;;;;4996251;28;20026;-52
2023/07/11 03:12:32;;;;;;;22.80;7.90;;;28.90;99.90;;;;;;4996337;28;20034;-52
2023/07/11 03:14:58;;;;;;;17.77;6.95;;;28.90;99.90;;;;;;4995929;28;20030;-52
2023/07/11 03:17:24;;;;;;;11.25;6.45;;;28.90;99.90;;;;;;4982997;28;20023;-52
2023/07/11 03:19:49;;;;;;;18.67;6.93;;;28.90;99.90;;;;;;4994662;28;20486;-52
2023/07/11 03:22:17;;;;;;;22.15;8.27;;;28.90;99.90;;;;;;4994440;28;20022;-53
2023/07/11 03:24:42;;;;;;;20.35;7.13;;;28.90;99.90;;;;;;4995765;28;20468;-53
2023/07/11 03:27:08;;;;;;;16.98;7.28;;;28.90;99.90;;;;;;4995722;28;20031;-52
2023/07/11 03:29:34;;;;;;;16.13;7.78;;;28.90;99.90;;;;;;4995996;28;20040;-52
2023/07/11 03:32:00;;;;;;;25.20;8.02;;;28.90;99.90;;;;;;4995273;28;20486;-52
2023/07/11 03:34:25;;;;;;;13.43;6.60;;;28.80;99.90;;;;;;4995631;28;20098;-52
2023/07/11 03:36:51;;;;;;;18.27;6.97;;;28.80;99.90;;;;;;4995416;28;20050;-52
2023/07/11 03:39:17;;;;;;;18.63;7.85;;;28.90;99.90;;;;;;4995276;28;20038;-52
2023/07/11 03:41:43;;;;;;;17.45;8.13;;;28.90;99.90;;;;;;4995342;28;20096;-52
2023/07/11 03:44:10;;;;;;;18.75;7.90;;;28.90;99.90;;;;;;4995713;28;20014;-52
2023/07/11 03:46:35;;;;;;;22.08;8.40;;;28.80;99.90;;;;;;4995550;28;20026;-52
2023/07/11 03:49:02;;;;;;;19.25;8.25;;;28.90;99.90;;;;;;4995452;28;20029;-52
2023/07/11 03:51:28;;;;;;;11.18;7.65;;;28.90;99.90;;;;;;4994354;28;20057;-52
2023/07/11 03:53:54;;;;;;;16.85;7.88;;;28.80;99.90;;;;;;4994960;28;20022;-52
2023/07/11 03:56:20;;;;;;;14.85;7.95;;;28.80;99.90;;;;;;4995380;28;20110;-52
2023/07/11 03:58:45;;;;;;;17.13;8.15;;;28.80;99.90;;;;;;4995104;28;20478;-52
2023/07/11 04:01:12;;;;;;;19.05;9.10;;;28.80;99.90;;;;;;4995030;28;20398;-52
2023/07/11 04:03:38;;;;;;;13.20;8.20;;;28.80;99.90;;;;;;4995397;28;20205;-52
2023/07/11 04:06:04;;;;;;;19.15;9.10;;;28.80;99.90;;;;;;4995341;28;20142;-53
2023/07/11 04:08:29;;;;;;;16.77;8.32;;;28.80;99.90;;;;;;4994898;28;20026;-53
2023/07/11 04:10:58;;;;;;;17.48;7.70;;;28.70;99.90;;;;;;4994973;28;20370;-52
2023/07/11 04:13:24;;;;;;;17.08;7.50;;;28.70;99.90;;;;;;4994964;28;20409;-52
2023/07/11 04:15:50;;;;;;;20.15;8.32;;;28.60;99.90;;;;;;4994963;28;20014;-52
2023/07/11 04:18:16;;;;;;;18.30;7.95;;;28.60;99.90;;;;;;4994962;28;20097;-52
2023/07/11 04:20:41;;;;;;;15.45;7.38;;;28.50;99.90;;;;;;4994845;28;20431;-53
2023/07/11 04:23:07;;;;;;;19.15;8.05;;;28.50;99.90;;;;;;4994622;28;20057;-53
2023/07/11 04:25:33;;;;;;;23.92;8.35;;;28.50;99.90;;;;;;4994868;28;20106;-52
2023/07/11 04:27:59;;;;;;;16.33;9.00;;;28.50;99.90;;;;;;4994531;28;20098;-53
2023/07/11 04:30:24;;;;;;;19.98;8.25;;;28.50;99.90;;;;;;4994665;28;20023;-52
2023/07/11 04:32:51;;;;;;;19.13;8.85;;;28.50;99.90;;;;;;4994478;28;20084;-53
2023/07/11 04:35:17;;;;;;;21.20;9.13;;;28.60;99.90;;;;;;4994624;28;20014;-53
2023/07/11 04:37:44;;;;;;;26.02;9.52;;;28.50;99.90;;;;;;4994314;28;20065;-53
2023/07/11 04:40:10;;;;;;;23.83;9.88;;;28.50;99.90;;;;;;4994093;28;20102;-54
2023/07/11 04:42:36;;;;;;;16.85;8.90;;;28.50;99.90;;;;;;4993346;28;20034;-53
2023/07/11 04:45:02;;;;;;;20.75;9.32;;;28.50;99.90;;;;;;4993006;28;20376;-53
2023/07/11 04:47:27;;;;;;;16.02;7.65;;;28.50;99.90;;;;;;4994158;28;20034;-53
2023/07/11 04:49:53;;;;;;;16.33;9.00;;;28.50;99.90;;;;;;4994199;28;20046;-53
2023/07/11 04:52:20;;;;;;;20.70;9.43;;;28.40;99.90;;;;;;4994075;28;20113;-53
2023/07/11 04:54:46;;;;;;;19.38;8.05;;;28.40;99.90;;;;;;4993910;28;20018;-53
2023/07/11 04:57:12;;;;;;;20.80;7.90;;;28.40;99.90;;;;;;4994078;28;20395;-52
2023/07/11 04:59:38;;;;;;;14.93;8.85;;;28.30;99.90;;;;;;4994265;28;20102;-52
2023/07/11 05:02:03;;;;;;;19.83;7.95;;;28.40;99.90;;;;;;4993444;28;20046;-53
2023/07/11 05:04:29;;;;;;;19.92;8.60;;;28.40;99.90;;;;;;4994147;28;20033;-53
2023/07/11 05:06:55;;;;;;;19.15;7.88;;;28.30;99.90;;;;;;4993679;28;20022;-53
2023/07/11 05:09:21;;;;;;;15.32;8.07;;;28.40;99.90;;;;;;4992411;28;20371;-52
2023/07/11 05:11:47;;;;;;;22.67;7.85;;;28.40;99.90;;;;;;4992605;28;20124;-53
2023/07/11 05:14:13;;;;;;;16.65;8.27;;;28.30;99.90;;;;;;4993789;28;20049;-52
2023/07/11 05:16:39;;;;;;;15.60;7.78;;;28.40;99.90;;;;;;4993733;28;20022;-52
2023/07/11 05:19:05;;;;;;;15.63;7.05;;;28.40;99.90;;;;;;4993636;28;20101;-52
2023/07/11 05:21:31;;;;;;;16.92;7.90;;;28.40;99.90;;;;;;4993575;28;20026;-52
2023/07/11 05:23:57;;;;;;;17.15;8.68;;;28.30;99.90;;;;;;4992077;28;20031;-52
2023/07/11 05:26:23;;;;;;;21.92;8.20;;;28.40;99.90;;;;;;4993551;28;20030;-52
2023/07/11 05:28:49;;;;;;;22.10;9.27;;;28.40;99.90;;;;;;4993417;28;20479;-52
2023/07/11 05:31:15;;;;;;;21.58;9.15;;;28.40;99.90;;;;;;4993229;28;20031;-52
2023/07/11 05:33:41;;;;;;;18.98;8.45;;;28.40;99.90;;;;;;4993445;28;20101;-53
2023/07/11 05:38:40;;;;;;;18.15;9.43;;;28.30;99.90;;;;;;4993344;28;20026;-54
2023/07/11 05:41:05;;;;;;;24.95;9.90;;;28.30;99.90;;;;;;4993430;28;20467;-53
2023/07/11 05:43:31;;;;;;;19.83;10.75;;;28.30;99.90;;;;;;4993073;28;20030;-53
2023/07/11 05:45:57;;;;;;;21.23;9.98;;;28.30;99.90;;;;;;4992932;28;20060;-53
2023/07/11 05:48:23;;;;;;;20.10;9.50;;;28.30;99.90;;;;;;4993172;28;20034;-53
2023/07/11 05:51:04;;;;;;;19.75;10.25;;;28.30;99.90;;;;;;4992804;28;20038;-52
2023/07/11 05:53:30;;;;;;;22.90;10.70;;;28.30;99.90;;;;;;4992936;28;20034;-53
2023/07/11 05:55:57;;;;;;;27.40;11.43;;;28.30;99.90;;;;;;4993050;28;20026;-53
2023/07/11 05:58:24;;;;;;;27.60;12.00;;;28.30;99.90;;;;;;4992725;28;20054;-52
2023/07/11 06:00:54;;;;;;;35.28;12.25;;;28.30;99.90;;;;;;4992658;28;20046;-52
2023/07/11 06:03:23;;;;;;;24.77;11.32;;;28.30;99.90;;;;;;4993183;28;20096;-52
2023/07/11 06:05:50;;;;;;;24.48;11.20;;;28.20;99.90;;;;;;4993043;28;20028;-52
2023/07/11 06:08:16;;;;;;;27.17;12.93;;;28.30;99.90;;;;;;4992735;28;20041;-52
2023/07/11 06:10:43;;;;;;;26.73;11.43;;;28.30;99.90;;;;;;4992900;28;20022;-52
2023/07/11 06:13:11;;;;;;;22.80;12.85;;;28.30;99.90;;;;;;4992377;28;20034;-51
2023/07/11 06:15:37;;;;;;;26.42;12.35;;;28.30;99.90;;;;;;4990996;28;20462;-52
2023/07/11 06:18:03;;;;;;;28.52;12.65;;;28.30;99.90;;;;;;4991459;28;20026;-52
2023/07/11 06:20:29;;;;;;;24.48;12.88;;;28.30;99.90;;;;;;4992651;28;20015;-52
2023/07/11 06:22:55;;;;;;;25.00;13.00;;;28.30;99.90;;;;;;4992675;28;20025;-51
2023/07/11 06:25:21;;;;;;;29.40;11.40;;;28.40;99.90;;;;;;4992413;28;20014;-51
2023/07/11 06:27:47;;;;;;;25.60;12.98;;;28.30;99.90;;;;;;4992532;28;20038;-52
2023/07/11 06:30:14;;;;;;;31.50;13.90;;;28.40;99.90;;;;;;4992645;28;20100;-51
2023/07/11 06:32:40;;;;;;;27.80;12.55;;;28.40;99.90;;;;;;4983788;28;20035;-52
2023/07/11 06:35:06;;;;;;;31.08;14.15;;;28.40;99.90;;;;;;4973121;28;20415;-51
2023/07/11 06:37:32;;;;;;;27.70;12.85;;;28.40;99.90;;;;;;4973297;28;20057;-51
2023/07/11 06:39:57;;;;;;;30.92;15.38;;;28.50;99.90;;;;;;4973872;28;20054;-51
2023/07/11 06:42:23;;;;;;;26.60;12.15;;;28.50;99.90;;;;;;4984452;28;20408;-51
2023/07/11 06:44:49;;;;;;;34.80;14.27;;;28.40;99.90;;;;;;4992356;28;20467;-52
2023/07/11 06:47:15;;;;;;;37.25;13.60;;;28.50;99.90;;;;;;4974704;28;20030;-50
2023/07/11 06:49:41;;;;;;;38.28;14.85;;;28.40;99.90;;;;;;4992430;28;20030;-50
2023/07/11 06:52:07;;;;;;;27.50;13.65;;;28.50;99.90;;;;;;4987066;28;20031;-50
2023/07/11 06:54:32;;;;;;;28.08;13.52;;;28.40;99.90;;;;;;4972612;28;20141;-50
2023/07/11 06:56:58;;;;;;;34.55;14.15;;;28.50;99.90;;;;;;4979437;28;20029;-50
2023/07/11 06:59:24;;;;;;;30.45;13.50;;;28.50;99.90;;;;;;4973820;28;20077;-50
2023/07/11 07:01:50;;;;;;;28.92;13.77;;;28.40;99.90;;;;;;4972528;28;20054;-50
2023/07/11 07:04:16;;;;;;;30.90;12.98;;;28.50;99.90;;;;;;4982728;28;20029;-51
2023/07/11 07:06:42;;;;;;;28.40;12.73;;;28.50;99.90;;;;;;4992228;28;20018;-52
2023/07/11 07:09:09;;;;;;;28.17;13.07;;;28.50;99.90;;;;;;4992179;28;20437;-51
2023/07/11 07:11:35;;;;;;;30.25;13.05;;;28.40;99.90;;;;;;4991986;28;20475;-51
2023/07/11 07:14:08;;;;;;;32.08;13.82;;;28.40;99.90;;;;;;4992192;28;20030;-51
2023/07/11 07:16:38;;;;;;;31.25;13.10;;;28.40;99.90;;;;;;4991857;28;20023;-51
2023/07/11 07:19:05;;;;;;;33.08;12.75;;;28.50;99.90;;;;;;4992055;28;20088;-51
2023/07/11 07:21:32;;;;;;;26.17;14.05;;;28.50;99.90;;;;;;4992090;28;20046;-49
2023/07/11 07:23:58;;;;;;;30.88;13.55;;;28.50;99.90;;;;;;4991937;28;20034;-50
2023/07/11 07:26:24;;;;;;;32.60;12.15;;;28.50;99.90;;;;;;4987782;28;20025;-50
2023/07/11 07:28:50;;;;;;;26.90;12.80;;;28.60;99.90;;;;;;4976208;28;20113;-51
2023/07/11 07:31:16;;;;;;;29.17;12.00;;;28.60;99.90;;;;;;4976093;28;20035;-51
2023/07/11 07:33:41;;;;;;;28.80;11.52;;;28.70;99.90;;;;;;4993799;28;20035;-49
2023/07/11 07:36:10;;;;;;;34.88;15.57;;;28.70;99.90;;;;;;4995587;28;20034;-50
2023/07/11 07:38:36;;;;;;;34.42;14.30;;;28.70;99.90;;;;;;4995317;28;20424;-49
2023/07/11 07:41:04;;;;;;;23.08;9.65;;;28.80;99.90;;;;;;4994226;28;20053;-49
2023/07/11 07:43:31;;;;;;;27.90;11.07;;;28.80;99.90;;;;;;4995415;28;20029;-49
2023/07/11 07:45:59;;;;;;;36.58;14.60;;;28.80;99.90;;;;;;4994028;28;20026;-49
2023/07/11 07:48:25;;;;;;;26.48;13.13;;;28.80;99.90;;;;;;4995280;28;20030;-49
2023/07/11 07:50:52;;;;;;;34.63;15.13;;;28.90;99.90;;;;;;4995284;28;20050;-50
2023/07/11 07:53:18;;;;;;;37.10;16.13;;;28.90;99.90;;;;;;4995143;28;20041;-50
2023/07/11 07:55:44;;;;;;;34.95;13.05;;;29.00;99.90;;;;;;4995287;28;20026;-49
2023/07/11 07:58:10;;;;;;;29.47;13.47;;;29.00;99.90;;;;;;4995397;28;20110;-49
2023/07/11 08:00:37;;;;;;;30.38;14.23;;;29.00;99.90;;;;;;4993634;28;20022;-48
2023/07/11 08:03:03;;;;;;;25.67;13.75;;;29.00;99.90;;;;;;4994734;28;20065;-49
2023/07/11 08:05:30;;;;;;;25.05;13.35;;;29.00;99.90;;;;;;4995200;28;20477;-50
2023/07/11 08:07:56;;;;;;;36.55;14.95;;;29.00;99.90;;;;;;4994887;28;20113;-51
2023/07/11 08:10:22;;;;;;;33.53;15.30;;;29.10;99.90;;;;;;4995047;28;20063;-51
2023/07/11 08:12:47;;;;;;;28.38;13.25;;;29.10;99.90;;;;;;4994661;28;20042;-50
2023/07/11 08:15:13;;;;;;;38.15;13.93;;;29.10;99.90;;;;;;4994466;28;20034;-49
2023/07/11 08:17:42;;;;;;;29.88;12.75;;;29.10;99.90;;;;;;4994004;28;20402;-50
2023/07/11 08:20:08;;;;;;;32.75;15.30;;;29.10;99.90;;;;;;4993818;28;20026;-50
2023/07/11 08:22:35;;;;;;;33.22;12.98;;;29.20;99.90;;;;;;4994705;28;20027;-50
2023/07/11 08:25:01;;;;;;;33.80;12.57;;;29.20;99.90;;;;;;4994607;28;20073;-50
2023/07/11 08:27:26;;;;;;;26.73;13.90;;;29.20;99.90;;;;;;4994718;28;20034;-50
2023/07/11 08:29:52;;;;;;;38.85;13.95;;;29.20;99.90;;;;;;4994597;28;20097;-50
2023/07/11 08:32:18;;;;;;;30.05;12.98;;;29.10;99.90;;;;;;4994626;28;20089;-50
2023/07/11 08:34:44;;;;;;;26.13;13.98;;;29.20;99.90;;;;;;4994525;28;20018;-51
2023/07/11 08:37:10;;;;;;;34.05;14.27;;;29.20;99.90;;;;;;4993857;28;20121;-51
2023/07/11 08:39:40;;;;;;;32.85;13.90;;;29.20;99.90;;;;;;4994146;28;20030;-51
2023/07/11 08:42:30;;;;;;;28.17;14.45;;;29.20;99.90;;;;;;4994408;28;20089;-51
2023/07/11 08:45:16;;;;;;;31.98;14.88;;;29.30;99.90;;;;;;4994077;28;20033;-51
2023/07/11 08:47:54;;;;;;;28.10;16.15;;;29.30;99.90;;;;;;4992799;28;20160;-51
2023/07/11 08:50:26;;;;;;;26.48;14.48;;;29.30;99.90;;;;;;4992960;28;20360;-50
2023/07/11 08:52:59;;;;;;;29.35;14.10;;;29.40;99.90;;;;;;4993882;28;20034;-50
2023/07/11 08:55:30;;;;;;;24.63;15.02;;;29.40;99.90;;;;;;4994238;28;20015;-50
2023/07/11 08:58:27;;;;;;;28.20;14.90;;;29.50;99.90;;;;;;4993810;28;20096;-50
2023/07/11 09:00:53;;;;;;;25.80;12.77;;;29.50;99.90;;;;;;4978812;28;20034;-50
2023/07/11 09:03:44;;;;;;;38.30;16.02;;;29.50;99.90;;;;;;4993971;28;20030;-50
2023/07/11 09:06:18;;;;;;;43.42;15.20;;;29.50;99.90;;;;;;4991360;28;20027;-51
2023/07/11 09:08:47;;;;;;;25.90;13.75;;;29.50;99.90;;;;;;4993837;28;20141;-50
2023/07/11 09:11:17;;;;;;;35.75;14.98;;;29.50;99.90;;;;;;4992551;28;20121;-50
2023/07/11 09:13:49;;;;;;;32.47;14.93;;;29.50;99.90;;;;;;4992170;28;20038;-50
2023/07/11 09:17:01;;;;;;;26.95;14.48;;;29.60;99.90;;;;;;4993710;28;20026;-50
2023/07/11 09:19:49;;;;;;;35.17;13.98;;;29.60;99.90;;;;;;4975658;28;20493;-49
2023/07/11 09:22:14;;;;;;;32.38;14.23;;;29.60;99.90;;;;;;4988985;28;20027;-49
2023/07/11 09:24:55;;;;;;;40.38;14.93;;;29.60;99.90;;;;;;4989232;28;20041;-51
2023/07/11 09:27:34;;;;;;;28.50;13.38;;;29.70;99.90;;;;;;4987505;28;20022;-49
2023/07/11 09:30:02;;;;;;;31.42;11.75;;;29.60;99.90;;;;;;4989849;28;20467;-48
2023/07/11 09:32:33;;;;;;;25.63;11.52;;;29.60;99.90;;;;;;4987792;28;20537;-51
2023/07/11 09:35:10;;;;;;;30.35;11.43;;;29.60;99.90;;;;;;4990066;28;20019;-56
2023/07/11 09:37:45;;;;;;;27.73;11.48;;;29.60;99.90;;;;;;4990830;28;20026;-52
2023/07/11 09:40:14;;;;;;;30.80;12.07;;;29.60;99.90;;;;;;4989426;28;20014;-54
2023/07/11 09:42:40;;;;;;;34.53;12.00;;;29.60;99.90;;;;;;4990064;28;20434;-50
2023/07/11 09:45:17;;;;;;;20.13;10.88;;;29.60;99.90;;;;;;4990517;28;20030;-50
2023/07/11 09:47:50;;;;;;;23.75;10.95;;;29.70;99.90;;;;;;4990258;28;20022;-51
2023/07/11 09:50:37;;;;;;;27.52;10.15;;;29.70;99.90;;;;;;4990073;28;20026;-50
2023/07/11 09:53:14;;;;;;;23.00;10.70;;;29.70;99.90;;;;;;4988369;28;20077;-51
2023/07/11 09:55:40;;;;;;;26.83;11.55;;;29.70;99.90;;;;;;4987788;28;20110;-51
2023/07/11 09:58:14;;;;;;;31.60;12.20;;;29.70;99.90;;;;;;4990394;28;20109;-51
2023/07/11 10:00:48;;;;;;;34.42;14.30;;;29.70;99.90;;;;;;4989589;28;20340;-50
2023/07/11 10:03:16;;;;;;;21.73;13.55;;;29.70;99.90;;;;;;4989111;28;20548;-51
2023/07/11 10:05:45;;;;;;;31.52;15.13;;;29.70;99.90;;;;;;4987721;28;20030;-50
2023/07/11 10:08:28;;;;;;;27.77;14.48;;;29.70;99.90;;;;;;4988935;28;20343;-49
2023/07/11 10:11:01;;;;;;;28.52;13.15;;;29.70;99.90;;;;;;4989462;28;20053;-51
2023/07/11 10:13:27;;;;;;;29.65;13.20;;;29.70;99.90;;;;;;4987897;28;20365;-51
2023/07/11 10:15:55;;;;;;;29.02;13.02;;;29.70;99.90;;;;;;4988853;28;20034;-51
2023/07/11 10:18:29;;;;;;;35.35;12.88;;;29.70;99.90;;;;;;4990287;28;20081;-52
2023/07/11 10:21:12;;;;;;;23.65;12.38;;;29.70;99.90;;;;;;4989974;28;20018;-52
2023/07/11 10:23:41;;;;;;;34.35;12.93;;;29.80;99.90;;;;;;4987283;28;20402;-52
2023/07/11 10:26:10;;;;;;;24.50;10.52;;;29.80;99.90;;;;;;4989872;28;20048;-51
2023/07/11 10:28:45;;;;;;;26.98;11.15;;;29.80;99.90;;;;;;4990534;28;20105;-51
2023/07/11 10:31:16;;;;;;;31.75;10.77;;;29.80;99.90;;;;;;4988736;28;20261;-51
2023/07/11 10:34:15;;;;;;;25.15;10.38;;;29.90;99.90;;;;;;4987291;28;20030;-51
2023/07/11 10:36:49;;;;;;;24.88;12.07;;;29.90;99.90;;;;;;4988440;28;20040;-51
2023/07/11 10:39:26;;;;;;;28.88;11.80;;;29.90;99.90;;;;;;4990120;28;20058;-46
2023/07/11 10:42:12;;;;;;;31.13;12.80;;;29.90;99.90;;;;;;4989896;28;20025;-52
2023/07/11 10:44:44;;;;;;;33.92;11.82;;;29.90;99.90;;;;;;4987397;28;20044;-51
2023/07/11 10:47:10;;;;;;;32.00;13.50;;;30.00;99.90;;;;;;4989391;28;20025;-51
2023/07/11 10:49:43;;;;;;;26.48;14.48;;;30.00;99.90;;;;;;4989319;28;20394;-52
2023/07/11 10:52:26;;;;;;;25.85;12.57;;;30.00;99.90;;;;;;4988083;28;20065;-53
2023/07/11 10:55:17;;;;;;;24.05;12.15;;;30.00;99.90;;;;;;4989240;28;20398;-51
2023/07/11 10:57:47;;;;;;;33.67;12.57;;;30.00;99.90;;;;;;4987358;28;20026;-51
2023/07/11 11:00:16;;;;;;;26.95;11.95;;;29.90;99.90;;;;;;4990899;28;20033;-52
2023/07/11 11:03:12;;;;;;;33.70;11.70;;;29.90;99.90;;;;;;4993489;28;20495;-53
2023/07/11 11:06:36;;;;;;;22.30;11.40;;;29.90;99.90;;;;;;4988462;28;20046;-47
2023/07/11 11:09:04;;;;;;;23.63;10.45;;;29.90;99.90;;;;;;4980913;28;20133;-51
2023/07/11 11:12:15;;;;;;;29.15;10.30;;;29.90;99.90;;;;;;4988466;28;20046;-50
2023/07/11 11:14:46;;;;;;;28.25;10.77;;;29.90;99.90;;;;;;4992848;28;20035;-49
2023/07/11 11:17:26;;;;;;;21.58;10.25;;;29.90;99.90;;;;;;4991281;28;20030;-50
2023/07/11 11:20:33;;;;;;;26.10;9.63;;;30.00;99.90;;;;;;4989922;28;20027;-50
2023/07/11 11:23:05;;;;;;;24.88;9.02;;;30.00;99.90;;;;;;4983013;28;20039;-50
2023/07/11 11:25:44;;;;;;;19.63;10.10;;;30.10;99.90;;;;;;4990345;28;20385;-50
2023/07/11 11:28:13;;;;;;;27.17;9.57;;;30.20;99.90;;;;;;4990044;28;20022;-50
2023/07/11 11:31:03;;;;;;;26.67;11.70;;;30.20;99.90;;;;;;4987279;28;20034;-50
2023/07/11 11:33:51;;;;;;;28.95;11.13;;;30.30;99.90;;;;;;4988168;28;20113;-50
2023/07/11 11:36:37;;;;;;;27.83;11.23;;;30.30;99.90;;;;;;4989651;28;20474;-50
2023/07/11 11:39:41;;;;;;;29.02;9.20;;;30.30;99.90;;;;;;4989867;28;20137;-49
2023/07/11 11:42:23;;;;;;;27.17;9.57;;;30.40;99.90;;;;;;4985701;28;20054;-50
2023/07/11 11:44:59;;;;;;;28.92;10.10;;;30.30;99.90;;;;;;4991481;28;20445;-50
2023/07/11 11:47:27;;;;;;;30.98;11.25;;;30.40;99.90;;;;;;4989684;28;20022;-50
2023/07/11 11:49:54;;;;;;;25.90;11.35;;;30.40;99.90;;;;;;4991517;28;20486;-50
2023/07/11 11:52:24;;;;;;;26.95;10.98;;;30.40;99.90;;;;;;4990555;28;20031;-50
2023/07/11 11:54:50;;;;;;;32.92;14.55;;;30.40;99.90;;;;;;4991495;28;20030;-50
2023/07/11 11:57:25;;;;;;;23.10;11.07;;;30.50;99.90;;;;;;4988325;28;20042;-50
2023/07/11 11:59:52;;;;;;;20.77;9.70;;;30.50;99.90;;;;;;4981508;28;20030;-50
2023/07/11 12:02:33;;;;;;;25.13;10.48;;;30.50;99.90;;;;;;4990283;28;20050;-51
2023/07/11 12:05:19;;;;;;;29.00;9.73;;;30.60;99.90;;;;;;4990812;28;20014;-50
2023/07/11 12:07:45;;;;;;;32.75;11.15;;;30.50;99.90;;;;;;4992454;28;20018;-50
2023/07/11 12:10:18;;;;;;;30.02;9.18;;;30.50;99.90;;;;;;4991899;28;20073;-50
2023/07/11 12:13:26;;;;;;;21.15;8.90;;;30.50;99.90;;;;;;4988395;28;20121;-54
2023/07/11 12:15:54;;;;;;;30.63;9.07;;;30.50;99.90;;;;;;4988400;28;20153;-54
2023/07/11 12:18:45;;;;;;;26.45;9.63;;;30.60;99.90;;;;;;4991871;28;20033;-54
2023/07/11 12:21:14;;;;;;;15.98;7.50;;;30.60;99.90;;;;;;4990084;28;20405;-54
2023/07/11 12:23:44;;;;;;;20.23;8.80;;;30.50;99.90;;;;;;4989785;28;20046;-55
2023/07/11 12:26:22;;;;;;;25.10;9.38;;;30.60;99.90;;;;;;4991502;28;20018;-55
2023/07/11 12:28:49;;;;;;;24.42;8.70;;;30.60;99.90;;;;;;4987826;28;20046;-55
2023/07/11 12:31:22;;;;;;;16.02;8.52;;;30.60;99.90;;;;;;4989307;28;20066;-55
2023/07/11 12:34:14;;;;;;;18.40;9.32;;;30.50;99.90;;;;;;4991305;28;20030;-55
2023/07/11 12:37:02;;;;;;;16.65;8.63;;;30.50;99.90;;;;;;4986971;28;20042;-55
2023/07/11 12:39:35;;;;;;;14.45;8.10;;;30.50;99.90;;;;;;4990146;28;20080;-55
2023/07/11 12:42:47;;;;;;;16.60;8.73;;;30.50;99.90;;;;;;4989486;28;20054;-55
2023/07/11 12:45:16;;;;;;;16.20;8.65;;;30.60;99.90;;;;;;4990874;28;20056;-54
2023/07/11 12:47:43;;;;;;;15.80;8.38;;;30.60;99.90;;;;;;4991917;28;20117;-55
2023/07/11 12:50:20;;;;;;;14.95;7.60;;;30.50;99.90;;;;;;4989595;28;20068;-55
2023/07/11 12:53:03;;;;;;;16.05;8.15;;;30.50;99.90;;;;;;4992238;28;20038;-54